Robert Gray Army Air Field Airport
KGRK : now visible

Airfield :











YOU CAN JOIN US ON...

 
LOGIN :

Register | Disclaimer

   EN    FR    IT 

 









Legend :    VFR   Marginal VFR   IFR   Intensive IFR   Very Intensive IFR
Visi :
Ceiling :
>= 8 km
>= 3000ft
5 to 8 km
1000 to 3000 ft
1500m to 5 km
500 to 1000 ft
800 to 1500m
200 to 500 ft
< 800m
< 200 ft
Symbols :   Thunderstorms  Fog  Heavy snow  Heavy precipitations  Wind > 20 kt






- Airport Elevation : 1015 ft
- IATA code : GRK


KGRK - Robert Gray Army Air Field

CURRENT METAR :
  • 301055Z AUTO 36014KT 4SM BR OVC006 M02/M03 A3019 RMK AO2 SLP231 T10191029

EXPIRED METARs :
  • 301039Z AUTO 36013KT 5SM BR OVC007 M02/M03 A3019 RMK AO2 SLP231
  • 301015Z AUTO 36013KT 10SM OVC009 M01/M03 A3019 RMK AO2 CIG 007 RWY15 SLP230
  • 300955Z AUTO 36012KT 10SM OVC011 M01/M03 A3018 RMK AO2 CIG 009 RWY15 SLP227 T10091028
  • 300855Z AUTO 01012KT 10SM OVC013 M00/M03 A3017 RMK AO2 CIG 012 RWY15 SLP223 T10021027 53006
  • 300840Z AUTO 03007KT 10SM OVC013 M00/M03 A3016 RMK AO2 CIG 012 RWY15 SLP219

TAF TAF KGRK
Valid from the 30 at 08:00 until the 31 at 14:00 UTC


300800Z 3008/3114 02010KT 9999 OVC015 510609 QNH3015INS
TEMPO 3008/3011 OVC012
BECMG 3011/3012 01012G20KT 8000 -FZRA OVC009 660003 510609 QNH3020INS
BECMG 3018/3019 01009KT 8000 -FZRA OVC009 660003 510609 QNH3020INS
BECMG 3020/3021 01009KT 8000 -SHRA OVC009 510609 QNH3020INS
BECMG 3103/3104 01009KT 9999 NSW OVC004 510609 QNH3020INS
BECMG 3108/3109 02009KT 8000 -FZRA OVC003 660003 QNH3018INS TX01/3021Z TNM01/3012Z
KZHU FIR / North America



MET'MAP, your aeronautical weather chart ! - Copyright ORBIFLY December 2007 - Disclaimer

ORBIFLY MET'MAP TEAM :

Programming & Development : Alexandra Zaïnal
Original concept : Baudouin d'Aumeries
Technical & hardware support : Manuel Goepfert
Assistance : Marc-Olivier Méhu




SOURCES & CREDITS :

   NOAA       Earth
Advisory